WAMP/PSJ METAR and TAF weather

Enter ICAO airport designator
Station Type Date Time Source
WAMP METAR UTC NOAA

Error!


Station Type Date Time Source
WAMP Decoded METAR UTC NOAA

Error!

Station Type Date Time Source
WAMP TAF 2014/05/01 06:33 UTC NOAA

TAF WAMP 010500Z 0106/0118 05010KT 9000 SCT017


Example: see airport list